Time;durP1;ratioP1;P1;durP2;ratioP2;P2;SDS_P1;SDS_P2;PMS_P1;PMS_P2;Temp;Humidity;BMP_temperature;BMP_pressure;BME280_temperature;BME280_humidity;BME280_pressure;Samples;Min_cycle;Max_cycle;Signal;HPM_P1;HPM_P2
2022/10/08 00:01:22;;;;;;;7.75;3.50;;;;;;;10.84;70.90;100384.94;4957860;29;20063;-54
2022/10/08 00:03:52;;;;;;;7.82;3.60;;;;;;;10.86;71.28;100387.41;4957787;29;20419;-54
2022/10/08 00:06:21;;;;;;;8.65;3.63;;;;;;;10.86;71.45;100388.22;4958124;29;20424;-51
2022/10/08 00:08:52;;;;;;;10.77;3.42;;;;;;;10.89;71.31;100370.84;4957866;29;20058;-54
2022/10/08 00:11:23;;;;;;;9.82;3.65;;;;;;;10.92;71.49;100373.03;4957682;29;20062;-51
2022/10/08 00:13:52;;;;;;;8.68;3.88;;;;;;;10.95;71.57;100382.69;4956553;28;20504;-52
2022/10/08 00:16:22;;;;;;;10.77;3.75;;;;;;;10.98;71.35;100379.25;4957035;28;20439;-53
2022/10/08 00:18:52;;;;;;;10.95;3.67;;;;;;;11.01;71.07;100377.81;4957493;29;20516;-53
2022/10/08 00:21:21;;;;;;;9.85;3.03;;;;;;;11.04;71.50;100371.59;4956909;28;20439;-53
2022/10/08 00:23:52;;;;;;;11.68;3.90;;;;;;;11.06;71.74;100369.31;4955059;28;20059;-55
2022/10/08 00:26:22;;;;;;;11.85;3.38;;;;;;;11.08;71.70;100369.81;4973706;28;20054;-51
2022/10/08 00:28:52;;;;;;;6.13;3.17;;;;;;;11.17;71.73;100373.44;4976566;28;20063;-50
2022/10/08 00:31:21;;;;;;;10.27;3.33;;;;;;;11.18;71.55;100370.34;4975137;28;20050;-53
2022/10/08 00:33:49;;;;;;;10.10;3.05;;;;;;;11.27;71.32;100372.34;4976237;28;20055;-54
2022/10/08 00:36:17;;;;;;;6.40;2.63;;;;;;;11.35;70.93;100368.78;4976186;28;20522;-52
2022/10/08 00:38:44;;;;;;;6.85;2.63;;;;;;;11.40;70.45;100367.81;4976045;28;20066;-53
2022/10/08 00:41:20;;;;;;;7.78;2.83;;;;;;;11.46;70.24;100370.13;4972143;28;20063;-52
2022/10/08 00:43:50;;;;;;;11.15;3.10;;;;;;;11.52;70.26;100370.81;4956687;29;20066;-55
2022/10/08 00:46:24;;;;;;;;;;;;;;;11.56;69.90;100371.81;4969556;28;20059;-53
2022/10/08 00:48:57;;;;;;;9.18;2.88;;;;;;;11.59;69.71;100371.19;4975895;28;20283;-53
2022/10/08 00:51:24;;;;;;;7.00;2.53;;;;;;;11.55;69.98;100376.56;4976188;28;20069;-54
2022/10/08 00:53:52;;;;;;;8.27;2.97;;;;;;;11.66;69.62;100377.09;4975959;28;20059;-53
2022/10/08 00:56:23;;;;;;;6.63;2.97;;;;;;;11.66;69.27;100368.72;4975759;28;20066;-52
2022/10/08 00:58:51;;;;;;;9.27;3.08;;;;;;;11.69;69.26;100365.28;4975738;28;20063;-54
2022/10/08 01:01:19;;;;;;;8.63;2.73;;;;;;;11.71;69.24;100368.56;4974876;28;20061;-52
2022/10/08 01:03:46;;;;;;;8.88;2.80;;;;;;;11.76;68.82;100371.22;4975236;28;20055;-53
2022/10/08 01:06:26;;;;;;;6.45;2.78;;;;;;;11.79;68.14;100359.38;4975526;28;20062;-53
2022/10/08 01:08:59;;;;;;;7.43;3.03;;;;;;;11.62;68.96;100373.31;4975172;28;20054;-53
2022/10/08 01:11:42;;;;;;;9.57;3.03;;;;;;;11.74;68.79;100372.69;4976127;28;20055;-54
2022/10/08 01:14:24;;;;;;;8.23;2.92;;;;;;;11.76;68.42;100368.41;4974984;28;20058;-51
2022/10/08 01:17:01;;;;;;;8.32;2.75;;;;;;;11.81;68.22;100366.63;4956457;29;20496;-53
2022/10/08 01:19:49;;;;;;;9.52;2.97;;;;;;;11.83;68.18;100375.50;4955938;29;20067;-52
2022/10/08 01:22:31;;;;;;;6.93;2.50;;;;;;;11.90;68.01;100381.44;4970661;28;20058;-50
2022/10/08 01:27:54;;;;;;;7.90;2.60;;;;;;;11.96;67.93;100366.19;4977454;28;20065;-51
2022/10/08 01:30:22;;;;;;;9.73;3.10;;;;;;;11.96;67.63;100364.19;4975061;28;20407;-51
2022/10/08 01:32:57;;;;;;;8.35;2.83;;;;;;;11.95;67.74;100361.75;4975222;28;20518;-52
2022/10/08 01:35:30;;;;;;;12.27;3.10;;;;;;;12.04;67.37;100359.78;4974242;28;20058;-54
2022/10/08 01:38:00;;;;;;;11.23;3.47;;;;;;;11.98;67.68;100366.69;4974837;28;20066;-51
2022/10/08 01:40:33;;;;;;;9.63;2.90;;;;;;;11.93;67.43;100376.03;4975350;28;20054;-54
2022/10/08 01:43:06;;;;;;;8.82;2.78;;;;;;;12.00;67.29;100369.16;4956383;28;20062;-53
2022/10/08 01:45:38;;;;;;;10.02;2.85;;;;;;;11.97;67.44;100371.44;4955993;29;20063;-53
2022/10/08 01:48:11;;;;;;;8.43;3.10;;;;;;;11.99;67.74;100362.75;4955488;29;20059;-53
2022/10/08 01:50:45;;;;;;;7.32;2.72;;;;;;;12.02;67.43;100361.28;4955679;28;20086;-54
2022/10/08 01:53:17;;;;;;;9.20;2.85;;;;;;;12.00;67.58;100358.78;4973830;28;20062;-54
2022/10/08 01:55:48;;;;;;;11.55;3.35;;;;;;;12.01;67.68;100357.66;4974962;28;20062;-54
2022/10/08 01:58:19;;;;;;;8.20;3.20;;;;;;;11.98;67.35;100355.50;4974133;28;20066;-53
2022/10/08 02:00:50;;;;;;;8.30;2.70;;;;;;;11.97;67.77;100360.28;4974205;28;20051;-52
2022/10/08 02:03:17;;;;;;;6.65;2.63;;;;;;;11.98;67.38;100361.09;4973595;28;20055;-53
2022/10/08 02:05:50;;;;;;;10.48;2.92;;;;;;;12.00;67.02;100358.78;4974576;28;20069;-52
2022/10/08 02:08:18;;;;;;;10.52;2.80;;;;;;;11.99;67.33;100354.38;4974745;28;20065;-54
2022/10/08 02:10:45;;;;;;;8.95;2.85;;;;;;;11.88;67.69;100350.22;4974573;28;20059;-54
2022/10/08 02:13:13;;;;;;;6.18;2.40;;;;;;;11.97;67.63;100351.09;4974102;28;20550;-53
2022/10/08 02:15:50;;;;;;;6.03;2.50;;;;;;;11.98;67.43;100353.53;4973134;28;20228;-51
2022/10/08 02:18:20;;;;;;;7.85;2.55;;;;;;;12.04;67.18;100353.38;4973878;28;20058;-53
2022/10/08 02:20:53;;;;;;;7.78;2.47;;;;;;;12.07;67.25;100347.13;4974613;28;20058;-53
2022/10/08 02:23:25;;;;;;;7.45;2.38;;;;;;;12.08;67.18;100337.63;4974494;28;20058;-53
2022/10/08 02:25:57;;;;;;;8.10;2.83;;;;;;;12.09;67.09;100344.84;4974108;28;20059;-52
2022/10/08 02:28:31;;;;;;;9.73;3.10;;;;;;;12.11;67.03;100348.13;4973847;28;20428;-53
2022/10/08 02:31:06;;;;;;;7.72;2.97;;;;;;;12.10;67.27;100340.91;4974365;28;20054;-54
2022/10/08 02:33:40;;;;;;;9.43;3.20;;;;;;;12.08;67.31;100346.81;4974474;28;20069;-59
2022/10/08 02:36:11;;;;;;;8.85;2.83;;;;;;;12.07;67.35;100339.56;4974111;28;20070;-60
2022/10/08 02:38:43;;;;;;;6.22;2.40;;;;;;;12.08;67.75;100337.63;4974194;28;20058;-60
2022/10/08 02:41:13;;;;;;;7.07;2.80;;;;;;;12.04;67.53;100336.63;4973854;28;20057;-53
2022/10/08 02:43:45;;;;;;;8.27;2.70;;;;;;;12.12;67.63;100344.19;4974211;28;20063;-50
2022/10/08 02:46:17;;;;;;;6.10;2.40;;;;;;;12.13;67.75;100341.06;4973917;28;20515;-54
2022/10/08 02:48:49;;;;;;;5.57;3.00;;;;;;;12.16;67.08;100340.41;4974005;28;20109;-53
2022/10/08 02:51:18;;;;;;;7.35;2.42;;;;;;;12.07;67.75;100330.38;4973867;28;20051;-53
2022/10/08 02:53:47;;;;;;;6.63;2.50;;;;;;;12.08;68.14;100334.84;4973668;28;20062;-53
2022/10/08 02:56:19;;;;;;;7.30;3.42;;;;;;;11.97;68.53;100337.94;4973516;28;20431;-53
2022/10/08 02:58:47;;;;;;;8.60;2.70;;;;;;;12.09;67.87;100334.47;4974057;28;20111;-53
2022/10/08 03:01:25;;;;;;;13.90;3.83;;;;;;;12.10;67.94;100338.94;4973744;28;20058;-53
2022/10/08 03:03:58;;;;;;;7.60;2.83;;;;;;;12.13;67.50;100335.47;4973569;28;20469;-53
2022/10/08 03:06:28;;;;;;;6.47;2.30;;;;;;;12.16;67.21;100334.84;4973722;28;20538;-52
2022/10/08 03:08:59;;;;;;;7.53;2.45;;;;;;;12.22;67.63;100331.88;4972347;28;20063;-53
2022/10/08 03:11:27;;;;;;;7.90;2.83;;;;;;;12.21;67.52;100335.81;4974033;28;20061;-53
2022/10/08 03:13:57;;;;;;;5.85;2.50;;;;;;;12.30;67.55;100326.28;4973623;28;20062;-53
2022/10/08 03:16:30;;;;;;;6.75;2.38;;;;;;;12.30;67.64;100333.84;4973493;28;20065;-54
2022/10/08 03:18:58;;;;;;;8.68;2.38;;;;;;;12.30;67.77;100326.28;4973288;28;20055;-53
2022/10/08 03:21:27;;;;;;;6.90;2.38;;;;;;;12.33;67.29;100314.44;4972873;28;20513;-52
2022/10/08 03:23:54;;;;;;;6.87;2.30;;;;;;;12.44;67.55;100328.91;4973113;28;20065;-54
2022/10/08 03:26:21;;;;;;;7.40;2.30;;;;;;;12.45;67.59;100312.94;4973364;28;20059;-54
2022/10/08 03:28:49;;;;;;;8.00;3.25;;;;;;;12.62;66.70;100323.28;4973372;28;20063;-54
2022/10/08 03:31:16;;;;;;;7.88;2.47;;;;;;;12.61;67.24;100316.88;4973313;28;20059;-53
2022/10/08 03:33:49;;;;;;;9.73;2.35;;;;;;;12.69;67.23;100318.00;4973546;28;20144;-54
2022/10/08 03:36:17;;;;;;;6.25;2.30;;;;;;;12.73;66.92;100319.00;4972982;28;20061;-51
2022/10/08 03:38:44;;;;;;;6.70;2.88;;;;;;;12.76;66.50;100323.91;4973475;28;20058;-54
2022/10/08 03:41:11;;;;;;;5.85;2.42;;;;;;;12.83;67.10;100328.97;4973107;28;20055;-54
2022/10/08 03:43:39;;;;;;;8.73;2.75;;;;;;;12.91;66.57;100337.31;4973243;28;20063;-54
2022/10/08 03:46:08;;;;;;;5.75;2.13;;;;;;;12.90;66.30;100341.28;4973616;28;20072;-54
2022/10/08 03:48:36;;;;;;;5.63;2.33;;;;;;;13.03;66.05;100350.63;4973484;28;20519;-54
2022/10/08 03:51:08;;;;;;;8.02;2.30;;;;;;;13.14;65.81;100351.06;4970570;28;20051;-54
2022/10/08 03:53:36;;;;;;;5.63;2.10;;;;;;;13.25;65.58;100359.91;4972135;28;20055;-54
2022/10/08 03:56:05;;;;;;;6.32;3.03;;;;;;;13.31;66.12;100356.66;4972975;28;20421;-53
2022/10/08 03:58:33;;;;;;;7.72;2.53;;;;;;;13.36;65.75;100358.44;4972714;28;20069;-53
2022/10/08 04:01:03;;;;;;;8.18;2.42;;;;;;;13.43;66.12;100364.31;4970656;28;20408;-53
2022/10/08 04:03:31;;;;;;;9.23;2.80;;;;;;;13.52;65.48;100361.47;4973168;28;20062;-53
2022/10/08 04:05:59;;;;;;;9.40;2.85;;;;;;;13.57;66.28;100355.69;4970849;28;20085;-55
2022/10/08 04:08:28;;;;;;;9.90;2.80;;;;;;;13.66;66.21;100358.44;4972837;28;20078;-54
2022/10/08 04:10:56;;;;;;;7.55;2.67;;;;;;;13.73;65.39;100353.13;4973252;28;20055;-52
2022/10/08 04:13:24;;;;;;;7.85;2.92;;;;;;;13.83;65.49;100358.34;4969906;28;20085;-53
2022/10/08 04:16:08;;;;;;;8.93;2.92;;;;;;;13.89;65.56;100368.16;4974174;28;20055;-56
2022/10/08 04:19:31;;;;;;;;;;;;;;;;;;;;;
2022/10/08 04:22:12;;;;;;;;;;;;;;;;;;;;;
2022/10/08 04:24:45;;;;;;;9.00;3.03;;;;;;;13.90;67.60;100383.00;4968909;28;20050;-54
2022/10/08 04:30:31;;;;;;;7.47;2.63;;;;;;;13.89;68.35;100387.78;4959683;28;20059;-54
2022/10/08 04:33:17;;;;;;;8.73;3.17;;;;;;;13.81;70.49;100392.25;4973828;28;20058;-53
2022/10/08 04:35:52;;;;;;;8.10;3.22;;;;;;;13.75;70.65;100390.84;4973566;28;20055;-53
2022/10/08 04:38:26;;;;;;;6.68;3.25;;;;;;;13.53;72.43;100396.72;4974055;28;20059;-53
2022/10/08 04:41:07;;;;;;;7.88;3.22;;;;;;;13.44;72.62;100390.31;4976856;28;20058;-54
2022/10/08 04:43:39;;;;;;;6.05;2.90;;;;;;;13.39;73.46;100394.94;4977275;28;20058;-55
2022/10/08 04:46:12;;;;;;;9.18;3.30;;;;;;;13.30;73.63;100398.94;4973257;28;20051;-53
2022/10/08 04:48:47;;;;;;;8.38;3.30;;;;;;;13.10;75.11;100400.44;4971204;28;20065;-53
2022/10/08 04:51:47;;;;;;;8.18;3.60;;;;;;;12.95;75.37;100388.63;4972310;28;20062;-53
2022/10/08 04:57:22;;;;;;;12.45;4.88;;;;;;;12.84;77.00;100403.31;4916784;29;20071;-54
2022/10/08 05:00:01;;;;;;;8.23;3.45;;;;;;;12.90;77.33;100391.63;4976067;28;20062;-52
2022/10/08 05:02:29;;;;;;;6.47;3.53;;;;;;;12.98;76.06;100387.97;4976561;28;20055;-52
2022/10/08 05:05:10;;;;;;;7.25;3.83;;;;;;;12.97;76.30;100402.28;4974586;28;20059;-53
2022/10/08 05:07:41;;;;;;;9.98;3.72;;;;;;;12.91;77.16;100404.44;4966132;28;20059;-51
2022/10/08 05:15:57;;;;;;;8.45;4.20;;;;;;;12.98;76.52;100410.34;4957612;28;20059;-53
2022/10/08 05:18:30;;;;;;;8.68;4.25;;;;;;;13.05;76.58;100409.84;4971599;28;20404;-53
2022/10/08 05:21:01;;;;;;;8.82;4.47;;;;;;;13.01;76.38;100417.25;4975780;28;20070;-50
2022/10/08 05:23:32;;;;;;;10.38;4.95;;;;;;;12.91;78.06;100418.41;4975286;28;20062;-54
2022/10/08 05:26:01;;;;;;;8.38;4.28;;;;;;;12.98;77.36;100418.72;4975725;28;20059;-52
2022/10/08 05:28:47;;;;;;;8.88;4.10;;;;;;;13.06;76.77;100422.69;4973652;28;20047;-53
2022/10/08 05:33:59;;;;;;;7.75;4.25;;;;;;;13.01;77.04;100420.03;4974575;28;20059;-54
2022/10/08 05:36:40;;;;;;;8.45;4.90;;;;;;;13.08;77.80;100422.31;4974803;28;20064;-53
2022/10/08 05:39:11;;;;;;;7.45;4.47;;;;;;;13.18;76.58;100431.16;4975994;28;20059;-54
2022/10/08 05:41:42;;;;;;;7.28;4.90;;;;;;;13.23;76.88;100426.56;4974131;28;20050;-53
2022/10/08 05:44:12;;;;;;;9.73;5.80;;;;;;;13.17;76.56;100428.72;4975534;28;20070;-52
2022/10/08 05:46:44;;;;;;;8.50;4.57;;;;;;;13.19;77.57;100427.25;4956616;29;20070;-54
2022/10/08 05:49:23;;;;;;;7.15;4.43;;;;;;;13.17;77.63;100435.13;4956259;28;20059;-52
2022/10/08 05:52:06;;;;;;;8.20;4.78;;;;;;;13.15;77.60;100439.44;4954513;29;20059;-52
2022/10/08 05:54:34;;;;;;;7.72;4.75;;;;;;;13.20;76.46;100440.06;4970294;28;20530;-52
2022/10/08 06:00:00;;;;;;;7.47;4.68;;;;;;;13.28;76.93;100445.97;4933650;28;20514;-50
2022/10/08 06:02:33;;;;;;;12.88;6.10;;;;;;;13.28;76.37;100449.59;4974609;28;20053;-54
2022/10/08 06:08:31;;;;;;;5.93;4.18;;;;;;;13.20;77.37;100451.25;4955673;28;20057;-53
2022/10/08 06:11:03;;;;;;;7.13;4.30;;;;;;;13.31;77.00;100456.50;4963499;28;20066;-51
2022/10/08 06:13:34;;;;;;;8.85;4.35;;;;;;;13.38;76.42;100454.03;4971492;28;20063;-52
2022/10/08 06:16:08;;;;;;;7.30;5.10;;;;;;;13.23;77.10;100460.13;4972447;28;20380;-53
2022/10/08 06:18:38;;;;;;;8.45;4.05;;;;;;;13.32;76.17;100469.38;4966718;28;20062;-53
2022/10/08 06:21:09;;;;;;;6.88;4.63;;;;;;;13.29;76.82;100470.00;4968383;28;20983;-54
2022/10/08 06:23:46;;;;;;;9.60;5.20;;;;;;;13.24;76.46;100479.38;4969590;28;20058;-56
2022/10/08 06:26:25;;;;;;;6.13;4.30;;;;;;;13.29;75.86;100487.66;4971811;28;20059;-55
2022/10/08 06:28:56;;;;;;;7.32;4.80;;;;;;;13.33;76.07;100487.78;4972217;28;20519;-51
2022/10/08 06:31:26;;;;;;;6.50;4.57;;;;;;;13.43;76.15;100492.22;4971788;28;20077;-53
2022/10/08 06:34:03;;;;;;;6.07;4.18;;;;;;;13.42;75.85;100502.59;4972293;28;20503;-53
2022/10/08 06:36:36;;;;;;;6.75;3.92;;;;;;;13.38;75.88;100493.22;4968779;28;20062;-52
2022/10/08 06:39:13;;;;;;;5.85;4.30;;;;;;;13.39;75.41;100487.25;4971275;28;21413;-53
2022/10/08 06:45:04;;;;;;;5.75;4.10;;;;;;;13.44;75.38;100502.22;4960688;28;20511;-55
2022/10/08 06:47:43;;;;;;;6.10;4.22;;;;;;;13.43;75.02;100503.41;4958975;28;20054;-53
2022/10/08 06:53:36;;;;;;;5.22;3.90;;;;;;;13.57;74.36;100510.44;4963291;28;20055;-53
2022/10/08 06:56:07;;;;;;;8.60;4.03;;;;;;;13.66;75.00;100517.97;4971916;28;20051;-50
2022/10/08 06:58:43;;;;;;;6.32;4.45;;;;;;;13.68;74.79;100521.28;4973379;28;20074;-52
2022/10/08 07:01:28;;;;;;;8.07;4.55;;;;;;;13.71;74.23;100529.84;4970103;28;20066;-54
2022/10/08 07:04:12;;;;;;;9.63;5.05;;;;;;;13.78;74.49;100529.31;4968599;28;20058;-53
2022/10/08 07:06:40;;;;;;;8.07;4.60;;;;;;;13.60;75.61;100543.34;4965202;28;20054;-53
2022/10/08 07:09:09;;;;;;;8.30;4.80;;;;;;;13.58;75.62;100545.66;4972249;28;20408;-53
2022/10/08 07:11:36;;;;;;;7.63;5.07;;;;;;;13.39;75.90;100553.59;4970410;28;20051;-51
2022/10/08 07:14:03;;;;;;;7.45;4.82;;;;;;;13.48;75.77;100553.56;4966357;28;20054;-54
2022/10/08 07:16:30;;;;;;;10.57;5.70;;;;;;;13.38;76.12;100555.56;4971257;28;20058;-52
2022/10/08 07:18:59;;;;;;;8.02;5.38;;;;;;;13.47;76.69;100563.13;4968675;28;20067;-51
2022/10/08 07:21:28;;;;;;;8.27;6.05;;;;;;;13.40;75.84;100556.06;4968604;28;20065;-54
2022/10/08 07:23:55;;;;;;;8.63;5.63;;;;;;;13.49;76.55;100564.44;4968702;28;20691;-52
2022/10/08 07:26:25;;;;;;;8.52;5.32;;;;;;;13.55;75.49;100574.31;4971634;28;20065;-50
2022/10/08 07:28:54;;;;;;;7.63;5.47;;;;;;;13.57;75.49;100569.22;4970331;28;20439;-50
2022/10/08 07:31:25;;;;;;;7.07;5.50;;;;;;;13.64;75.47;100577.09;4972185;28;20423;-53
2022/10/08 07:33:53;;;;;;;8.88;5.22;;;;;;;13.75;75.47;100583.16;4971111;28;20465;-50
2022/10/08 07:36:23;;;;;;;8.45;5.85;;;;;;;13.83;75.54;100590.72;4970493;28;20057;-54
2022/10/08 07:38:53;;;;;;;;;;;;;;;13.91;74.38;100584.25;4971322;28;20428;-51
2022/10/08 07:41:20;;;;;;;9.63;6.00;;;;;;;13.92;74.58;100587.88;4971994;28;19922;-53
2022/10/08 07:43:50;;;;;;;9.02;6.32;;;;;;;14.06;74.02;100591.28;4971576;28;20050;-54
2022/10/08 07:46:17;;;;;;;8.05;6.68;;;;;;;14.08;73.55;100591.78;4969277;28;20495;-53
2022/10/08 07:48:45;;;;;;;10.40;7.80;;;;;;;14.15;73.61;100589.31;4970402;28;20519;-52
2022/10/08 07:51:14;;;;;;;16.92;8.00;;;;;;;14.17;74.82;100601.00;4971040;28;20057;-52
2022/10/08 07:53:43;;;;;;;10.80;8.65;;;;;;;14.13;73.68;100600.03;4971653;28;20055;-54
2022/10/08 07:56:12;;;;;;;12.25;7.70;;;;;;;14.28;74.69;100607.03;4973309;28;20059;-51
2022/10/08 07:58:40;;;;;;;13.73;8.30;;;;;;;14.25;74.50;100606.88;4969645;28;20059;-54
2022/10/08 08:01:11;;;;;;;10.65;8.73;;;;;;;14.40;73.37;100609.97;4970313;28;20510;-50
2022/10/08 08:03:38;;;;;;;14.07;8.70;;;;;;;14.60;73.43;100619.59;4970100;28;20407;-54
2022/10/08 08:06:08;;;;;;;13.73;9.32;;;;;;;14.77;72.70;100615.88;4968609;28;20061;-54
2022/10/08 08:08:38;;;;;;;13.90;8.50;;;;;;;14.76;71.91;100616.19;4970749;28;20066;-53
2022/10/08 08:11:08;;;;;;;9.68;8.50;;;;;;;14.77;71.79;100618.69;4968644;28;20055;-53
2022/10/08 08:13:38;;;;;;;12.38;9.20;;;;;;;14.83;72.53;100627.72;4971338;28;20427;-54
2022/10/08 08:16:07;;;;;;;12.00;9.40;;;;;;;14.77;72.57;100629.09;4974311;28;20047;-54
2022/10/08 08:18:36;;;;;;;15.55;10.90;;;;;;;14.93;71.80;100638.56;4974266;28;20069;-53
2022/10/08 08:21:06;;;;;;;13.73;10.65;;;;;;;14.98;71.56;100645.94;4974070;28;20062;-56
2022/10/08 08:23:35;;;;;;;12.73;10.18;;;;;;;14.81;71.39;100642.06;4972106;28;20061;-52
2022/10/08 08:26:03;;;;;;;13.35;9.88;;;;;;;15.07;71.11;100649.50;4975063;28;20058;-54
2022/10/08 08:28:32;;;;;;;12.68;9.88;;;;;;;15.24;70.91;100651.34;4974866;28;20062;-54
2022/10/08 08:31:09;;;;;;;17.23;10.68;;;;;;;15.76;68.72;100652.94;4973188;28;20050;-53
2022/10/08 08:33:36;;;;;;;15.68;11.65;;;;;;;15.77;68.76;100666.63;4970624;28;20051;-54
2022/10/08 08:36:04;;;;;;;17.65;11.02;;;;;;;15.87;67.19;100656.13;4974642;28;20051;-53
2022/10/08 08:38:33;;;;;;;14.73;11.00;;;;;;;15.75;66.63;100662.53;4975132;28;20055;-53
2022/10/08 08:41:08;;;;;;;13.40;9.82;;;;;;;16.03;67.03;100657.13;4974440;28;20054;-55
2022/10/08 08:43:36;;;;;;;13.32;9.77;;;;;;;16.23;66.34;100663.81;4974218;28;20058;-54
2022/10/08 08:46:04;;;;;;;13.88;10.80;;;;;;;16.82;64.93;100671.09;4974690;28;20054;-53
2022/10/08 08:48:36;;;;;;;14.00;10.48;;;;;;;17.15;63.42;100678.53;4974320;28;20058;-53
2022/10/08 08:51:04;;;;;;;12.60;10.25;;;;;;;17.07;62.43;100671.84;4973942;28;20066;-51
2022/10/08 08:53:31;;;;;;;12.73;9.68;;;;;;;17.81;60.43;100671.69;4974184;28;20098;-56
2022/10/08 08:56:03;;;;;;;11.98;8.80;;;;;;;18.44;58.77;100676.66;4974005;28;20415;-53
2022/10/08 08:58:37;;;;;;;14.00;9.10;;;;;;;19.43;56.62;100671.78;4974051;28;20528;-53
2022/10/08 09:01:16;;;;;;;12.48;8.77;;;;;;;20.96;52.47;100662.97;4974492;28;20081;-54
2022/10/08 09:03:47;;;;;;;10.75;9.32;;;;;;;21.19;50.35;100672.22;4974423;28;20062;-56
2022/10/08 09:06:17;;;;;;;10.95;8.07;;;;;;;21.44;50.07;100664.13;4972790;28;20059;-53
2022/10/08 09:08:48;;;;;;;9.95;7.38;;;;;;;21.36;49.57;100675.72;4972341;28;20058;-54
2022/10/08 09:11:17;;;;;;;9.85;8.25;;;;;;;20.65;51.33;100685.53;4967670;28;20055;-55
2022/10/08 09:13:50;;;;;;;13.68;10.82;;;;;;;19.98;52.21;100696.38;4974600;28;20055;-55
2022/10/08 09:16:22;;;;;;;16.35;11.00;;;;;;;19.62;53.26;100687.13;4972479;28;20534;-54
2022/10/08 09:18:51;;;;;;;13.13;10.10;;;;;;;19.36;53.88;100693.41;4973117;28;20439;-53
2022/10/08 09:21:19;;;;;;;13.45;10.90;;;;;;;19.14;54.20;100698.56;4974011;28;20047;-54
2022/10/08 09:23:47;;;;;;;11.95;9.10;;;;;;;19.19;54.62;100703.94;4973364;28;20057;-54
2022/10/08 09:26:17;;;;;;;9.95;8.48;;;;;;;19.84;53.60;100708.19;4973941;28;20070;-54
2022/10/08 09:28:46;;;;;;;13.55;9.30;;;;;;;20.36;52.26;100711.66;4974589;28;20054;-53
2022/10/08 09:31:26;;;;;;;8.60;7.20;;;;;;;22.91;47.71;100696.13;4973553;28;20055;-55
2022/10/08 09:34:00;;;;;;;9.43;7.23;;;;;;;24.39;44.28;100700.53;4969970;28;20051;-54
2022/10/08 09:36:36;;;;;;;9.95;6.70;;;;;;;23.68;43.37;100711.22;4973968;28;20497;-55
2022/10/08 09:39:06;;;;;;;10.60;6.72;;;;;;;22.70;44.53;100717.44;4966517;28;20065;-55
2022/10/08 09:41:34;;;;;;;10.32;6.78;;;;;;;22.08;46.45;100714.31;4973605;28;20054;-56
2022/10/08 09:44:11;;;;;;;9.00;7.03;;;;;;;21.49;46.75;100719.63;4972668;28;20051;-55
2022/10/08 09:46:40;;;;;;;9.63;6.88;;;;;;;23.28;44.05;100718.72;4972786;28;20059;-54
2022/10/08 09:49:28;;;;;;;7.72;6.13;;;;;;;24.02;41.85;100715.88;4970556;28;20059;-56
2022/10/08 09:51:57;;;;;;;7.88;5.28;;;;;;;24.98;40.25;100726.66;4972504;28;20059;-56
2022/10/08 09:54:27;;;;;;;7.78;5.60;;;;;;;25.09;38.78;100729.50;4970077;28;20054;-55
2022/10/08 09:56:58;;;;;;;7.10;5.68;;;;;;;26.88;37.25;100716.59;4972536;28;20757;-56
2022/10/08 09:59:28;;;;;;;7.00;5.22;;;;;;;28.20;32.59;100719.28;4973493;28;20061;-55
2022/10/08 10:01:58;;;;;;;9.00;5.88;;;;;;;28.76;32.15;100721.75;4971494;28;20415;-57
2022/10/08 10:04:33;;;;;;;5.57;4.30;;;;;;;30.37;30.98;100732.28;4972188;28;20074;-56
2022/10/08 10:07:01;;;;;;;6.15;3.60;;;;;;;31.73;27.63;100723.06;4971605;28;20058;-57
2022/10/08 10:09:42;;;;;;;5.95;3.90;;;;;;;32.21;27.06;100732.78;4973081;28;20062;-56
2022/10/08 10:12:25;;;;;;;6.00;3.80;;;;;;;33.95;25.09;100730.22;4973158;28;20429;-56
2022/10/08 10:14:58;;;;;;;6.32;3.75;;;;;;;35.02;23.78;100721.44;4973609;28;20430;-54
2022/10/08 10:17:35;;;;;;;4.95;3.63;;;;;;;35.91;22.29;100719.63;4972925;28;20077;-56
2022/10/08 10:20:06;;;;;;;6.07;3.77;;;;;;;36.17;20.66;100710.56;4973287;28;20061;-57
2022/10/08 10:22:41;;;;;;;5.65;3.92;;;;;;;36.49;20.45;100716.91;4971828;28;20059;-57
2022/10/08 10:25:16;;;;;;;5.30;3.30;;;;;;;36.34;21.24;100719.69;4968824;28;20054;-57
2022/10/08 10:27:50;;;;;;;4.55;2.40;;;;;;;34.78;21.61;100724.13;4972296;28;20065;-57
2022/10/08 10:30:20;;;;;;;6.07;2.97;;;;;;;33.10;23.48;100720.50;4973063;28;20063;-57
2022/10/08 10:32:54;;;;;;;6.57;3.22;;;;;;;31.93;24.95;100720.84;4969076;28;20062;-57
2022/10/08 10:35:25;;;;;;;5.93;2.90;;;;;;;30.66;26.77;100727.47;4968335;28;20055;-57
2022/10/08 10:37:58;;;;;;;5.05;2.78;;;;;;;30.53;27.44;100732.28;4973093;28;20051;-56
2022/10/08 10:40:42;;;;;;;4.93;2.78;;;;;;;29.11;29.08;100726.94;4974240;28;20058;-57
2022/10/08 10:43:18;;;;;;;6.63;2.95;;;;;;;29.46;29.54;100727.53;4973990;28;20081;-55
2022/10/08 10:45:51;;;;;;;5.88;3.22;;;;;;;28.43;30.71;100736.56;4974200;28;20058;-56
2022/10/08 10:48:20;;;;;;;6.80;3.53;;;;;;;27.49;32.23;100736.88;4975482;28;20065;-56
2022/10/08 10:51:03;;;;;;;8.13;3.35;;;;;;;26.61;32.96;100740.06;4974154;28;20066;-56
2022/10/08 10:53:41;;;;;;;7.70;4.05;;;;;;;26.19;34.07;100752.53;4973880;28;20059;-56
2022/10/08 10:56:14;;;;;;;6.10;3.55;;;;;;;25.50;34.46;100755.56;4974246;28;20496;-56
2022/10/08 10:59:01;;;;;;;4.63;3.20;;;;;;;24.51;36.28;100755.09;4974000;28;20518;-56
2022/10/08 11:01:39;;;;;;;7.68;3.63;;;;;;;23.34;38.11;100767.50;4973105;28;20059;-56
2022/10/08 11:04:19;;;;;;;6.50;3.60;;;;;;;22.39;39.60;100760.50;4964980;28;20546;-56
2022/10/08 11:07:01;;;;;;;6.75;3.58;;;;;;;21.65;41.12;100774.13;4973811;28;20069;-56
2022/10/08 11:09:40;;;;;;;7.68;3.63;;;;;;;21.01;42.78;100773.91;4973376;28;20403;-55
2022/10/08 11:12:20;;;;;;;7.30;3.60;;;;;;;20.77;43.91;100763.78;4973906;28;20059;-56
2022/10/08 11:14:59;;;;;;;7.43;3.60;;;;;;;20.68;43.95;100769.69;4973657;28;20058;-56
2022/10/08 11:17:41;;;;;;;6.40;3.57;;;;;;;20.38;44.79;100760.19;4973668;28;20062;-54
2022/10/08 11:20:39;;;;;;;5.68;3.60;;;;;;;20.39;44.98;100761.81;4973002;28;20071;-55
2022/10/08 11:23:16;;;;;;;6.22;3.75;;;;;;;22.69;42.08;100761.22;4968051;28;20058;-56
2022/10/08 11:25:49;;;;;;;5.95;3.58;;;;;;;23.41;39.96;100753.31;4973207;28;20108;-55
2022/10/08 11:28:30;;;;;;;6.30;3.25;;;;;;;23.00;38.38;100759.09;4973085;28;20058;-56
2022/10/08 11:31:10;;;;;;;7.53;3.53;;;;;;;22.84;39.47;100761.38;4973493;28;20059;-56
2022/10/08 11:33:39;;;;;;;5.68;3.13;;;;;;;23.63;38.29;100748.59;4973683;28;20058;-56
2022/10/08 11:36:21;;;;;;;4.63;3.20;;;;;;;25.17;36.83;100753.13;4973130;28;20055;-55
2022/10/08 11:38:54;;;;;;;6.65;3.30;;;;;;;27.22;32.85;100748.19;4973141;28;20066;-56
2022/10/08 11:41:29;;;;;;;4.50;2.65;;;;;;;28.34;30.58;100744.88;4972884;28;20066;-56
2022/10/08 11:44:00;;;;;;;5.30;2.78;;;;;;;29.76;27.45;100754.47;4973008;28;20055;-57
2022/10/08 11:46:29;;;;;;;5.07;2.92;;;;;;;31.05;25.44;100748.72;4972088;28;20066;-57
2022/10/08 11:48:59;;;;;;;6.38;2.65;;;;;;;32.20;25.06;100742.72;4975205;28;20074;-55
2022/10/08 11:51:37;;;;;;;5.72;2.90;;;;;;;33.42;23.68;100747.44;4977010;28;20069;-57
2022/10/08 11:54:12;;;;;;;2.90;2.38;;;;;;;34.06;22.05;100740.56;4978764;28;20047;-57
2022/10/08 11:56:42;;;;;;;4.80;2.45;;;;;;;34.57;22.00;100749.75;4977233;28;20066;-57
2022/10/08 11:59:34;;;;;;;5.32;2.40;;;;;;;34.99;20.13;100745.59;4976815;28;20055;-57
2022/10/08 12:02:04;;;;;;;4.18;2.92;;;;;;;34.94;18.18;100740.41;4976704;28;20054;-57
2022/10/08 12:04:34;;;;;;;5.30;2.50;;;;;;;34.88;20.28;100748.94;4976851;28;20503;-57
2022/10/08 12:07:20;;;;;;;4.97;2.17;;;;;;;34.79;18.58;100751.78;4976004;28;20062;-57
2022/10/08 12:10:22;;;;;;;3.53;2.47;;;;;;;34.89;18.95;100735.25;4976864;28;20058;-58
2022/10/08 12:13:16;;;;;;;3.50;2.03;;;;;;;35.14;17.68;100740.81;4972602;28;20066;-57
2022/10/08 12:15:58;;;;;;;3.38;2.67;;;;;;;34.16;18.52;100742.28;4954551;28;20105;-57
2022/10/08 12:18:53;;;;;;;2.92;1.80;;;;;;;34.35;18.51;100746.88;4965990;28;20047;-57
2022/10/08 12:21:50;;;;;;;3.13;2.15;;;;;;;34.10;19.60;100744.13;4971749;28;20069;-57
2022/10/08 12:24:53;;;;;;;4.95;2.10;;;;;;;34.19;19.18;100746.31;4958064;28;20055;-57